Time;durP1;ratioP1;P1;durP2;ratioP2;P2;SDS_P1;SDS_P2;PMS_P1;PMS_P2;Temp;Humidity;BMP_temperature;BMP_pressure;BME280_temperature;BME280_humidity;BME280_pressure;Samples;Min_cycle;Max_cycle;Signal;HPM_P1;HPM_P2
2022/11/09 00:02:16;;;;;;;36.08;22.48;;;;;;;4.85;100.00;98886.17;2197253;80;21040;-85
2022/11/09 00:05:17;;;;;;;37.50;23.60;;;;;;;4.80;100.00;98879.27;2203621;80;20977;-85
2022/11/09 00:08:18;;;;;;;34.98;25.02;;;;;;;4.77;100.00;98880.86;2198344;81;21503;-86
2022/11/09 00:11:19;;;;;;;34.78;23.98;;;;;;;4.74;100.00;98880.30;2200328;80;21012;-85
2022/11/09 00:14:19;;;;;;;33.78;21.87;;;;;;;4.71;100.00;98876.69;2197876;81;20969;-84
2022/11/09 00:17:20;;;;;;;34.05;22.70;;;;;;;4.69;100.00;98883.80;2196038;81;21075;-85
2022/11/09 00:20:21;;;;;;;29.50;22.00;;;;;;;4.62;100.00;98879.63;2194359;81;20899;-85
2022/11/09 00:23:22;;;;;;;33.65;23.32;;;;;;;4.56;100.00;98876.28;2195490;81;21020;-86
2022/11/09 00:26:22;;;;;;;37.80;24.65;;;;;;;4.54;100.00;98875.61;2200313;80;21084;-85
2022/11/09 00:29:23;;;;;;;32.10;21.45;;;;;;;4.51;100.00;98870.22;2195465;81;20950;-85
2022/11/09 00:32:24;;;;;;;33.18;22.50;;;;;;;4.51;100.00;98876.70;2199146;81;21045;-85
2022/11/09 00:35:25;;;;;;;33.35;23.20;;;;;;;4.50;100.00;98878.96;2193778;80;20962;-85
2022/11/09 00:38:25;;;;;;;33.05;22.75;;;;;;;4.49;100.00;98879.10;2196459;81;21548;-85
2022/11/09 00:41:26;;;;;;;33.90;24.20;;;;;;;4.46;100.00;98874.98;2197020;81;21001;-85
2022/11/09 00:44:27;;;;;;;31.37;22.02;;;;;;;4.43;100.00;98870.08;2200705;80;20922;-84
2022/11/09 00:47:28;;;;;;;34.00;22.77;;;;;;;4.42;100.00;98872.34;2190414;81;21044;-86
2022/11/09 00:50:28;;;;;;;32.88;23.85;;;;;;;4.40;100.00;98872.96;2196856;81;20989;-85
2022/11/09 00:53:29;;;;;;;32.08;23.45;;;;;;;4.37;100.00;98870.62;2198027;81;20957;-84
2022/11/09 00:56:30;;;;;;;39.75;24.32;;;;;;;4.36;100.00;98869.47;2196171;81;20981;-84
2022/11/09 00:59:30;;;;;;;35.55;24.02;;;;;;;4.34;100.00;98867.49;2199980;81;21026;-84
2022/11/09 01:02:31;;;;;;;41.35;26.25;;;;;;;4.33;100.00;98868.45;2178805;81;20997;-84
2022/11/09 01:05:32;;;;;;;39.55;27.20;;;;;;;4.31;100.00;98866.00;2196093;80;20973;-85
2022/11/09 01:08:33;;;;;;;45.85;28.92;;;;;;;4.33;100.00;98862.78;2190250;81;20958;-85
2022/11/09 01:11:33;;;;;;;54.67;30.92;;;;;;;4.36;100.00;98865.58;2195734;81;20949;-85
2022/11/09 01:14:34;;;;;;;57.58;32.25;;;;;;;4.42;100.00;98865.04;2192842;81;21480;-85
2022/11/09 01:17:35;;;;;;;59.58;33.83;;;;;;;4.50;100.00;98859.52;2190420;81;21045;-85
2022/11/09 01:20:35;;;;;;;58.90;32.48;;;;;;;4.59;100.00;98862.24;2200087;81;20961;-85
2022/11/09 01:23:36;;;;;;;56.63;33.05;;;;;;;4.71;100.00;98849.45;2194787;81;21525;-85
2022/11/09 01:26:37;;;;;;;52.98;33.08;;;;;;;4.71;100.00;98849.45;2199533;81;20911;-84
2022/11/09 01:29:38;;;;;;;55.15;32.33;;;;;;;4.81;100.00;98858.03;2198576;81;21009;-85
2022/11/09 01:32:38;;;;;;;53.80;31.62;;;;;;;4.85;100.00;98855.03;2200448;81;20907;-84
2022/11/09 01:35:39;;;;;;;58.08;34.00;;;;;;;4.90;100.00;98855.09;2197722;81;21026;-85
2022/11/09 01:38:40;;;;;;;59.73;34.00;;;;;;;4.95;100.00;98856.31;2199953;81;20993;-85
2022/11/09 01:41:41;;;;;;;65.83;35.78;;;;;;;4.99;100.00;98852.47;2192196;80;21005;-85
2022/11/09 01:44:42;;;;;;;60.58;33.00;;;;;;;5.04;100.00;98848.17;2198621;81;20996;-85
2022/11/09 01:47:43;;;;;;;57.80;33.88;;;;;;;5.06;100.00;98855.33;2196779;81;20942;-85
2022/11/09 01:50:44;;;;;;;62.23;34.98;;;;;;;5.08;100.00;98846.91;2202648;81;20996;-85
2022/11/09 01:53:44;;;;;;;61.70;34.35;;;;;;;5.09;100.00;98846.77;2201423;80;21012;-85
2022/11/09 01:56:45;;;;;;;56.15;34.10;;;;;;;5.09;100.00;98843.35;2195196;81;20919;-85
2022/11/09 01:59:46;;;;;;;62.73;35.48;;;;;;;5.09;100.00;98842.87;2195506;81;21013;-84
2022/11/09 02:02:46;;;;;;;65.28;34.53;;;;;;;5.09;100.00;98848.06;2182161;81;21485;-85
2022/11/09 02:05:47;;;;;;;58.08;34.00;;;;;;;5.07;100.00;98843.50;2193621;81;20927;-85
2022/11/09 02:08:48;;;;;;;59.45;33.28;;;;;;;5.06;100.00;98838.45;2199227;81;20977;-85
2022/11/09 02:11:49;;;;;;;62.65;34.38;;;;;;;5.07;100.00;98837.49;2198602;81;21481;-84
2022/11/09 02:14:49;;;;;;;63.17;34.30;;;;;;;5.07;100.00;98838.79;2202318;81;21005;-85
2022/11/09 02:17:50;;;;;;;60.45;34.58;;;;;;;5.04;100.00;98845.09;2195523;81;20953;-86
2022/11/09 02:20:51;;;;;;;59.90;33.28;;;;;;;5.02;100.00;98835.30;2197011;81;21470;-84
2022/11/09 02:23:52;;;;;;;59.98;33.10;;;;;;;5.02;100.00;98838.38;2197002;81;20942;-85
2022/11/09 02:26:52;;;;;;;61.42;34.78;;;;;;;5.02;100.00;98838.38;2191779;81;20926;-85
2022/11/09 02:29:53;;;;;;;64.17;34.70;;;;;;;5.03;100.00;98833.08;2198167;80;21405;-84
2022/11/09 02:32:54;;;;;;;63.73;34.48;;;;;;;5.07;100.00;98838.79;2199164;81;20930;-85
2022/11/09 02:35:55;;;;;;;63.28;34.92;;;;;;;5.07;100.00;98830.52;2189424;80;20966;-85
2022/11/09 02:38:55;;;;;;;71.30;37.28;;;;;;;5.07;100.00;98828.41;2187947;81;22116;-85
2022/11/09 02:41:56;;;;;;;57.90;34.67;;;;;;;5.06;100.00;98828.89;2185152;81;21069;-84
2022/11/09 02:44:56;;;;;;;70.00;35.33;;;;;;;5.06;100.00;98822.41;2183681;81;20947;-85
2022/11/09 02:47:57;;;;;;;55.58;33.23;;;;;;;5.06;100.00;98820.29;2180463;81;20957;-85
2022/11/09 02:50:58;;;;;;;62.93;34.38;;;;;;;5.02;100.00;98822.81;2188527;81;20967;-86
2022/11/09 02:53:59;;;;;;;58.15;33.58;;;;;;;4.98;100.00;98819.69;2185138;81;20974;-85
2022/11/09 02:56:59;;;;;;;68.02;36.13;;;;;;;4.97;100.00;98823.73;2174515;81;21521;-85
2022/11/09 03:00:00;;;;;;;71.00;37.03;;;;;;;4.97;100.00;98823.73;2181505;81;21034;-85
2022/11/09 03:03:01;;;;;;;64.82;34.67;;;;;;;4.98;100.00;98821.47;2183962;81;20990;-86
2022/11/09 03:06:01;;;;;;;67.22;35.80;;;;;;;5.00;100.00;98822.14;2182614;81;20926;-85
2022/11/09 03:09:02;;;;;;;69.65;36.80;;;;;;;5.03;100.00;98823.99;2195236;81;20926;-85
2022/11/09 03:12:27;;;;;;;69.30;38.10;;;;;;;5.07;100.00;98827.11;2184233;81;21442;-84
2022/11/09 03:15:06;;;;;;;67.25;34.55;;;;;;;5.10;100.00;98815.14;2179772;81;21022;-86
2022/11/09 03:18:07;;;;;;;62.80;34.23;;;;;;;5.14;100.00;98820.40;2188331;81;20943;-86
2022/11/09 03:21:08;;;;;;;62.25;33.85;;;;;;;5.14;100.00;98819.09;2181729;81;20985;-85
2022/11/09 03:24:08;;;;;;;56.55;32.58;;;;;;;5.13;100.00;98817.47;2183120;81;20969;-85
2022/11/09 03:27:09;;;;;;;61.08;32.80;;;;;;;5.07;100.00;98818.84;2183033;81;20978;-85
2022/11/09 03:30:10;;;;;;;61.15;33.70;;;;;;;5.02;100.00;98821.52;2179490;81;20990;-85
2022/11/09 03:33:13;;;;;;;61.95;33.55;;;;;;;4.98;100.00;98820.98;2185330;81;20986;-85
2022/11/09 03:36:14;;;;;;;63.20;35.17;;;;;;;4.95;100.00;98819.98;2178909;81;20963;-85
2022/11/09 03:39:14;;;;;;;54.90;31.42;;;;;;;4.91;100.00;98819.91;2172807;81;21026;-85
2022/11/09 03:42:15;;;;;;;51.55;30.70;;;;;;;4.87;100.00;98822.46;2178000;81;20938;-85
2022/11/09 03:45:16;;;;;;;50.25;30.40;;;;;;;4.81;100.00;98829.02;2179839;81;21008;-85
2022/11/09 03:48:16;;;;;;;48.80;30.20;;;;;;;4.73;100.00;98825.00;2168218;81;21042;-85
2022/11/09 03:51:17;;;;;;;49.42;30.90;;;;;;;4.63;100.00;98827.28;2183128;81;21481;-85
2022/11/09 03:54:18;;;;;;;53.58;32.50;;;;;;;4.52;100.00;98817.88;2174863;81;21008;-85
2022/11/09 03:57:19;;;;;;;61.20;32.00;;;;;;;4.42;100.00;98822.27;2183163;81;21258;-86
2022/11/09 04:00:19;;;;;;;55.83;32.50;;;;;;;4.32;100.00;98815.78;2180304;81;21045;-85
2022/11/09 04:03:20;;;;;;;63.98;34.27;;;;;;;4.25;100.00;98818.09;2187312;81;21009;-86
2022/11/09 04:06:21;;;;;;;61.63;35.48;;;;;;;4.17;100.00;98807.59;2182475;81;20990;-85
2022/11/09 04:09:21;;;;;;;58.02;34.25;;;;;;;4.16;100.00;98810.33;2187535;81;21568;-85
2022/11/09 04:12:22;;;;;;;59.55;33.38;;;;;;;4.14;100.00;98807.88;2188797;81;21018;-85
2022/11/09 04:15:23;;;;;;;58.52;33.23;;;;;;;4.13;100.00;98808.84;2180390;81;20919;-85
2022/11/09 04:18:23;;;;;;;59.77;33.78;;;;;;;4.10;100.00;98805.20;2185044;81;20970;-85
2022/11/09 04:21:24;;;;;;;53.08;31.95;;;;;;;4.07;100.00;98789.12;2188825;81;21505;-85
2022/11/09 04:24:25;;;;;;;55.78;33.20;;;;;;;4.04;100.00;98797.17;2183517;81;20939;-85
2022/11/09 04:27:28;;;;;;;58.30;31.95;;;;;;;4.00;100.00;98794.83;2179541;81;20990;-83
2022/11/09 04:30:29;;;;;;;57.58;33.18;;;;;;;3.98;100.00;98789.45;2179957;81;20919;-85
2022/11/09 04:33:30;;;;;;;49.23;30.97;;;;;;;3.97;100.00;98794.30;2184911;81;20994;-85
2022/11/09 04:36:30;;;;;;;55.25;32.85;;;;;;;3.95;100.00;98797.03;2188178;80;20946;-85
2022/11/09 04:39:31;;;;;;;60.20;33.23;;;;;;;3.96;100.00;98796.07;2191867;81;21001;-84
2022/11/09 04:42:32;;;;;;;56.02;31.62;;;;;;;3.96;100.00;98799.14;2183784;81;20980;-83
2022/11/09 04:45:32;;;;;;;55.23;31.87;;;;;;;3.95;100.00;98802.21;2186715;81;21511;-85
2022/11/09 04:48:33;;;;;;;45.60;29.67;;;;;;;3.95;100.00;98798.33;2173140;81;21011;-86
2022/11/09 04:51:34;;;;;;;52.83;31.10;;;;;;;3.95;100.00;98801.39;2191083;81;21029;-84
2022/11/09 04:54:34;;;;;;;58.35;31.75;;;;;;;3.95;100.00;98802.21;2178732;81;20950;-84
2022/11/09 04:57:35;;;;;;;48.68;30.27;;;;;;;3.95;100.00;98804.80;2191380;81;20973;-84
2022/11/09 05:00:36;;;;;;;48.48;28.47;;;;;;;3.92;100.00;98801.16;2186132;81;21044;-83
2022/11/09 05:03:37;;;;;;;51.23;29.75;;;;;;;3.94;100.00;98807.53;2186677;81;20945;-85
2022/11/09 05:06:38;;;;;;;47.25;29.02;;;;;;;3.92;100.00;98806.34;2187308;81;21036;-82
2022/11/09 05:09:40;;;;;;;49.25;28.87;;;;;;;3.88;100.00;98802.41;2182204;81;21544;-87
2022/11/09 05:12:41;;;;;;;48.30;27.70;;;;;;;3.84;100.00;98800.20;2189275;81;21456;-88
2022/11/09 05:15:41;;;;;;;56.53;29.35;;;;;;;3.81;100.00;98795.30;2189516;81;20926;-83
2022/11/09 05:18:42;;;;;;;51.92;30.65;;;;;;;3.77;100.00;98792.17;2178578;81;21029;-84
2022/11/09 05:21:43;;;;;;;53.63;31.07;;;;;;;3.74;100.00;98795.48;2178716;82;20998;-84
2022/11/09 05:24:43;;;;;;;48.75;30.55;;;;;;;3.71;100.00;98792.70;2178622;82;21064;-84
2022/11/09 05:27:44;;;;;;;55.12;32.23;;;;;;;3.70;100.00;98793.66;2178784;81;21493;-85
2022/11/09 05:30:45;;;;;;;56.90;34.20;;;;;;;3.70;100.00;98801.42;2178749;81;21025;-84
2022/11/09 05:33:46;;;;;;;51.95;30.77;;;;;;;3.70;100.00;98806.60;2178914;82;21001;-85
2022/11/09 05:36:47;;;;;;;49.88;29.95;;;;;;;3.70;100.00;98798.83;2173795;81;21482;-85
2022/11/09 05:39:47;;;;;;;50.33;29.37;;;;;;;3.68;100.00;98800.74;2172138;81;20954;-85
2022/11/09 05:42:48;;;;;;;50.43;30.45;;;;;;;3.66;100.00;98800.88;2171787;82;21005;-85
2022/11/09 05:45:49;;;;;;;50.15;29.32;;;;;;;3.65;100.00;98802.28;2171995;81;20983;-84
2022/11/09 05:48:50;;;;;;;53.75;30.05;;;;;;;3.65;100.00;98801.80;2172290;81;21002;-85
2022/11/09 05:51:50;;;;;;;53.28;31.68;;;;;;;3.64;100.00;98804.05;2171783;82;21002;-84
2022/11/09 05:54:51;;;;;;;53.30;29.42;;;;;;;3.65;100.00;98810.87;2171462;81;20982;-84
2022/11/09 05:57:52;;;;;;;50.95;30.52;;;;;;;3.67;100.00;98811.58;2171678;82;21507;-84
2022/11/09 06:00:53;;;;;;;49.60;30.70;;;;;;;3.69;100.00;98807.56;2172073;82;20974;-84
2022/11/09 06:03:54;;;;;;;50.75;29.55;;;;;;;3.70;100.00;98806.13;2171782;82;21054;-85
2022/11/09 06:06:54;;;;;;;45.10;28.23;;;;;;;3.72;100.00;98808.58;2172243;81;21493;-85
2022/11/09 06:09:55;;;;;;;47.90;29.20;;;;;;;3.75;100.00;98810.91;2171499;81;20946;-84
2022/11/09 06:12:56;;;;;;;46.02;28.47;;;;;;;3.78;100.00;98811.94;2171488;81;21025;-84
2022/11/09 06:15:57;;;;;;;47.10;29.65;;;;;;;3.81;100.00;98814.25;2171444;81;20989;-85
2022/11/09 06:18:57;;;;;;;47.58;29.07;;;;;;;3.87;100.00;98815.02;2171444;82;20973;-85
2022/11/09 06:21:58;;;;;;;45.25;26.73;;;;;;;3.93;100.00;98820.96;2171411;81;21073;-84
2022/11/09 06:24:59;;;;;;;48.83;27.77;;;;;;;3.98;100.00;98825.73;2171547;81;20990;-84
2022/11/09 06:28:00;;;;;;;43.40;28.12;;;;;;;4.06;100.00;98830.23;2171441;81;21065;-84
2022/11/09 06:31:01;;;;;;;43.42;27.40;;;;;;;4.14;100.00;98833.79;2171681;81;21025;-82
2022/11/09 06:34:02;;;;;;;46.53;28.87;;;;;;;4.25;100.00;98830.24;2171215;81;20959;-82
2022/11/09 06:37:03;;;;;;;40.40;25.17;;;;;;;4.35;100.00;98831.53;2181811;81;21085;-80
2022/11/09 06:40:03;;;;;;;37.85;25.43;;;;;;;4.48;100.00;98832.91;2187821;81;21596;-80
2022/11/09 06:43:04;;;;;;;44.63;27.85;;;;;;;4.58;100.00;98829.48;2187845;81;20962;-80
2022/11/09 06:46:05;;;;;;;43.60;27.35;;;;;;;4.68;100.00;98833.70;2187791;81;20989;-80
2022/11/09 06:49:06;;;;;;;43.15;27.35;;;;;;;4.79;100.00;98825.75;2187632;81;21032;-80
2022/11/09 06:52:07;;;;;;;40.15;26.82;;;;;;;4.92;100.00;98829.81;2187786;81;20962;-80
2022/11/09 06:55:07;;;;;;;43.87;26.35;;;;;;;5.05;100.00;98829.04;2187836;81;21013;-80
2022/11/09 06:58:08;;;;;;;42.25;27.67;;;;;;;5.17;100.00;98832.27;2187778;81;21579;-79
2022/11/09 07:01:09;;;;;;;40.28;26.75;;;;;;;5.28;100.00;98830.78;2187840;81;20961;-79
2022/11/09 07:04:10;;;;;;;45.05;26.15;;;;;;;5.37;100.00;98830.73;2187858;81;20985;-79
2022/11/09 07:07:11;;;;;;;43.85;25.65;;;;;;;5.45;100.00;98826.61;2187680;81;21017;-80
2022/11/09 07:10:11;;;;;;;43.52;26.27;;;;;;;5.51;100.00;98820.37;2187855;81;21001;-81
2022/11/09 07:13:12;;;;;;;43.45;25.45;;;;;;;5.60;100.00;98827.30;2187802;81;20997;-82
2022/11/09 07:16:16;;;;;;;42.85;26.42;;;;;;;5.69;100.00;98830.80;2187699;81;21446;-80
2022/11/09 07:19:16;;;;;;;44.00;26.97;;;;;;;5.82;100.00;98824.77;2187847;81;21016;-81
2022/11/09 07:22:16;;;;;;;37.80;26.15;;;;;;;5.96;100.00;98824.30;2187786;81;21536;-80
2022/11/09 07:25:17;;;;;;;43.02;27.87;;;;;;;6.11;100.00;98818.09;2187750;81;20985;-81
2022/11/09 07:28:18;;;;;;;43.87;26.75;;;;;;;6.28;100.00;98816.45;2187754;81;21508;-80
2022/11/09 07:31:19;;;;;;;45.48;27.58;;;;;;;6.46;100.00;98819.86;2187670;81;21005;-81
2022/11/09 07:34:20;;;;;;;46.53;29.98;;;;;;;6.67;100.00;98821.30;2187922;81;21021;-81
2022/11/09 07:37:20;;;;;;;43.48;27.60;;;;;;;6.88;100.00;98807.48;2175276;80;21034;-80
2022/11/09 07:40:21;;;;;;;44.80;27.70;;;;;;;7.12;100.00;98806.30;2168874;82;21047;-81
2022/11/09 07:43:22;;;;;;;40.98;26.65;;;;;;;7.36;100.00;98805.60;2156540;82;20997;-86
2022/11/09 07:46:22;;;;;;;48.33;28.77;;;;;;;7.65;100.00;98805.21;2170593;82;21073;-84
2022/11/09 07:49:23;;;;;;;40.03;25.97;;;;;;;7.86;100.00;98801.34;2194180;80;21010;-83
2022/11/09 07:52:23;;;;;;;39.08;26.17;;;;;;;8.04;100.00;98801.22;2215902;80;21496;-83
2022/11/09 07:55:24;;;;;;;48.98;27.40;;;;;;;8.20;100.00;98802.05;2216069;80;21049;-83
2022/11/09 07:58:25;;;;;;;41.25;28.38;;;;;;;8.36;100.00;98801.28;2215979;80;21489;-82
2022/11/09 08:01:26;;;;;;;44.60;28.30;;;;;;;8.48;100.00;98797.36;2216085;80;21013;-86
2022/11/09 08:04:26;;;;;;;42.73;26.57;;;;;;;8.61;100.00;98796.87;2216388;80;21076;-81
2022/11/09 08:07:27;;;;;;;47.48;28.10;;;;;;;8.69;100.00;98789.04;2211795;80;21020;-88
2022/11/09 08:10:28;;;;;;;35.63;23.87;;;;;;;8.78;100.00;98795.06;2146766;80;21051;-87
2022/11/09 08:13:29;;;;;;;40.90;26.12;;;;;;;8.95;100.00;98785.38;2130268;84;20993;-87
2022/11/09 08:16:29;;;;;;;38.42;25.40;;;;;;;9.12;100.00;98772.09;2130153;83;21012;-86
2022/11/09 08:19:30;;;;;;;40.05;26.37;;;;;;;9.17;100.00;98774.22;2130393;84;21039;-86
2022/11/09 08:22:31;;;;;;;41.88;25.95;;;;;;;9.21;100.00;98779.91;2130585;84;21041;-86
2022/11/09 08:25:31;;;;;;;43.83;27.95;;;;;;;9.25;100.00;98779.91;2130382;84;21313;-87
2022/11/09 08:28:32;;;;;;;46.10;28.17;;;;;;;9.31;100.00;98782.64;2130255;84;21535;-84
2022/11/09 08:31:33;;;;;;;43.35;28.10;;;;;;;9.38;100.00;98778.38;2130106;84;21021;-87
2022/11/09 08:34:33;;;;;;;41.68;26.27;;;;;;;9.49;100.00;98778.48;2130541;83;21620;-86
2022/11/09 08:37:34;;;;;;;46.68;26.62;;;;;;;9.59;100.00;98776.96;2130325;83;21028;-84
2022/11/09 08:40:35;;;;;;;45.17;28.35;;;;;;;9.72;100.00;98779.84;2130481;83;20973;-86
2022/11/09 08:43:36;;;;;;;37.78;25.23;;;;;;;9.85;100.00;98777.96;2130426;84;21063;-84
2022/11/09 08:46:37;;;;;;;38.30;26.10;;;;;;;9.96;100.00;98780.98;2130560;83;21049;-83
2022/11/09 08:49:38;;;;;;;42.30;26.10;;;;;;;10.07;100.00;98781.59;2130465;83;21009;-86
2022/11/09 08:52:39;;;;;;;41.68;25.72;;;;;;;10.23;100.00;98788.02;2130819;83;20997;-85
2022/11/09 08:55:39;;;;;;;36.20;25.32;;;;;;;10.38;100.00;98782.84;2131830;83;20961;-84
2022/11/09 08:58:40;;;;;;;41.95;27.30;;;;;;;10.53;100.00;98777.98;2131584;84;20957;-85
2022/11/09 09:01:41;;;;;;;38.98;25.45;;;;;;;10.69;100.00;98778.30;2130535;84;21017;-84
2022/11/09 09:04:42;;;;;;;39.67;26.07;;;;;;;10.82;100.00;98777.20;2160863;80;21505;-85
2022/11/09 09:07:42;;;;;;;39.40;25.17;;;;;;;10.94;100.00;98778.06;2169608;82;21908;-85
2022/11/09 09:10:43;;;;;;;40.70;24.82;;;;;;;11.02;100.00;98776.67;2131842;82;20954;-85
2022/11/09 09:13:44;;;;;;;44.40;27.32;;;;;;;11.05;100.00;98781.03;2126929;84;20969;-85
2022/11/09 09:16:44;;;;;;;45.05;27.90;;;;;;;11.10;100.00;98786.56;2126898;84;21072;-85
2022/11/09 09:19:45;;;;;;;38.55;26.42;;;;;;;11.17;100.00;98791.91;2126864;84;21061;-85
2022/11/09 09:22:46;;;;;;;43.25;26.55;;;;;;;11.26;100.00;98794.75;2126976;84;21004;-84
2022/11/09 09:25:47;;;;;;;41.80;26.50;;;;;;;11.32;100.00;98795.81;2126926;84;21449;-86
2022/11/09 09:28:47;;;;;;;40.10;25.30;;;;;;;11.37;100.00;98794.28;2151125;80;20963;-86
2022/11/09 09:31:48;;;;;;;44.20;26.33;;;;;;;11.45;100.00;98795.18;2169734;82;21037;-86
2022/11/09 09:34:49;;;;;;;40.28;24.70;;;;;;;11.52;100.00;98797.36;2169133;82;20956;-87
2022/11/09 09:37:50;;;;;;;39.25;25.82;;;;;;;11.60;100.00;98792.02;2169272;82;21106;-85
2022/11/09 09:40:50;;;;;;;34.10;23.83;;;;;;;11.66;100.00;98797.34;2169541;82;21019;-83
2022/11/09 09:43:51;;;;;;;36.55;25.05;;;;;;;11.76;100.00;98783.94;2169667;82;21027;-85
2022/11/09 09:46:52;;;;;;;34.33;24.15;;;;;;;11.86;100.00;98781.86;2169177;82;21075;-84
2022/11/09 09:49:52;;;;;;;36.48;22.58;;;;;;;11.94;100.00;98779.12;2169169;82;20975;-85
2022/11/09 09:52:53;;;;;;;39.00;25.35;;;;;;;12.00;100.00;98776.26;2169303;82;21478;-86
2022/11/09 09:55:54;;;;;;;39.08;25.72;;;;;;;12.10;100.00;98779.38;2169579;82;21552;-85
2022/11/09 09:58:54;;;;;;;36.83;24.37;;;;;;;12.20;100.00;98775.94;2169865;82;20944;-85
2022/11/09 10:01:57;;;;;;;35.58;23.40;;;;;;;12.33;100.00;98784.92;2170302;82;21603;-85
2022/11/09 10:04:58;;;;;;;36.28;23.87;;;;;;;12.43;100.00;98774.41;2172397;80;21247;-84
2022/11/09 10:07:58;;;;;;;34.85;23.77;;;;;;;12.52;100.00;98777.70;2171097;82;21503;-85
2022/11/09 10:10:59;;;;;;;33.70;24.80;;;;;;;12.57;100.00;98774.53;2171206;82;21050;-85
2022/11/09 10:14:00;;;;;;;36.08;24.40;;;;;;;12.64;100.00;98774.89;2171500;82;21007;-85
2022/11/09 10:17:00;;;;;;;33.35;23.75;;;;;;;12.69;100.00;98777.73;2171231;82;21037;-85
2022/11/09 10:20:01;;;;;;;35.88;23.62;;;;;;;12.73;100.00;98769.80;2171467;80;20954;-86
2022/11/09 10:23:02;;;;;;;33.08;22.75;;;;;;;12.74;100.00;98770.61;2171324;82;21071;-85
2022/11/09 10:26:03;;;;;;;34.45;22.35;;;;;;;12.74;100.00;98779.30;2171120;81;20997;-86
2022/11/09 10:29:03;;;;;;;35.52;23.77;;;;;;;12.75;100.00;98775.67;2171284;81;20927;-87
2022/11/09 10:32:04;;;;;;;34.58;24.05;;;;;;;12.77;100.00;98779.41;2171354;81;20990;-85
2022/11/09 10:35:05;;;;;;;38.20;25.55;;;;;;;12.81;100.00;98776.73;2171105;81;20990;-85
2022/11/09 10:38:06;;;;;;;43.33;28.77;;;;;;;12.84;100.00;98785.53;2171023;81;21014;-84
2022/11/09 10:41:06;;;;;;;64.00;39.38;;;;;;;12.85;100.00;98779.77;2171383;82;21096;-84
2022/11/09 10:44:07;;;;;;;62.78;38.90;;;;;;;12.85;100.00;98780.59;2171169;82;21442;-85
2022/11/09 10:47:07;;;;;;;43.78;30.50;;;;;;;12.85;100.00;98781.90;2171247;81;21013;-86
2022/11/09 10:50:08;;;;;;;39.05;23.87;;;;;;;12.88;100.00;98784.63;2171064;82;21081;-86
2022/11/09 10:53:09;;;;;;;35.25;22.45;;;;;;;12.90;100.00;98778.20;2171125;82;21026;-85
2022/11/09 10:56:10;;;;;;;33.25;22.40;;;;;;;12.94;100.00;98771.55;2171861;81;21030;-85
2022/11/09 10:59:11;;;;;;;31.20;22.17;;;;;;;12.95;100.00;98773.17;2172074;82;21422;-84
2022/11/09 11:02:12;;;;;;;36.90;22.50;;;;;;;12.98;100.00;98770.64;2172006;81;21061;-83
2022/11/09 11:05:12;;;;;;;55.67;31.65;;;;;;;13.04;100.00;98773.83;2172420;82;20997;-84
2022/11/09 11:08:13;;;;;;;31.90;21.17;;;;;;;13.05;100.00;98759.17;2171060;82;20985;-85
2022/11/09 11:11:14;;;;;;;43.38;28.00;;;;;;;13.08;100.00;98762.75;2171219;81;21497;-84
2022/11/09 11:14:15;;;;;;;31.20;21.57;;;;;;;13.08;100.00;98766.69;2171122;82;21034;-84
2022/11/09 11:17:15;;;;;;;32.45;21.15;;;;;;;13.09;100.00;98762.24;2171379;81;20989;-84
2022/11/09 11:20:16;;;;;;;28.73;20.27;;;;;;;13.08;100.00;98764.56;2171857;82;21524;-86
2022/11/09 11:23:17;;;;;;;28.25;20.45;;;;;;;13.12;100.00;98770.23;2171266;81;20943;-85
2022/11/09 11:26:17;;;;;;;30.52;21.35;;;;;;;13.14;100.00;98762.95;2171223;82;21513;-86
2022/11/09 11:29:18;;;;;;;25.70;18.77;;;;;;;13.15;100.00;98756.19;2171374;82;21100;-86
2022/11/09 11:32:19;;;;;;;27.85;19.30;;;;;;;13.17;100.00;98758.64;2171262;82;21029;-85
2022/11/09 11:35:19;;;;;;;28.85;18.40;;;;;;;13.17;100.00;98758.14;2170762;82;21026;-86
2022/11/09 11:38:20;;;;;;;31.50;21.55;;;;;;;13.23;100.00;98759.19;2149668;80;21087;-86
2022/11/09 11:41:21;;;;;;;30.72;23.30;;;;;;;13.27;100.00;98765.19;2170874;80;21401;-85
2022/11/09 11:44:21;;;;;;;29.65;22.65;;;;;;;13.33;100.00;98755.19;2178807;82;21477;-85
2022/11/09 11:47:23;;;;;;;29.67;21.42;;;;;;;13.38;100.00;98754.61;2178832;82;21607;-85
2022/11/09 11:50:24;;;;;;;27.42;20.95;;;;;;;13.43;100.00;98752.19;2178551;82;21059;-85
2022/11/09 11:53:25;;;;;;;25.65;17.65;;;;;;;13.47;100.00;98749.48;2178646;81;20945;-86
2022/11/09 11:56:26;;;;;;;27.65;19.80;;;;;;;13.54;100.00;98758.22;2178758;81;21504;-85
2022/11/09 11:59:26;;;;;;;29.85;20.45;;;;;;;13.59;100.00;98758.94;2178779;81;20937;-84
2022/11/09 12:02:27;;;;;;;30.27;21.37;;;;;;;13.64;100.00;98756.03;2179079;81;20953;-86
2022/11/09 12:05:28;;;;;;;30.02;21.40;;;;;;;13.70;100.00;98758.86;2178744;82;20992;-85
2022/11/09 12:08:30;;;;;;;28.27;20.45;;;;;;;13.74;100.00;98762.23;2178610;82;21089;-86
2022/11/09 12:11:31;;;;;;;28.02;19.00;;;;;;;13.78;100.00;98758.69;2178771;82;21083;-85
2022/11/09 12:14:31;;;;;;;28.00;19.55;;;;;;;13.78;100.00;98762.12;2178768;81;21023;-85
2022/11/09 12:17:32;;;;;;;29.42;19.73;;;;;;;13.77;100.00;98756.56;2178823;81;21004;-85
2022/11/09 12:20:33;;;;;;;26.40;19.12;;;;;;;13.75;100.00;98754.63;2177281;82;21072;-85
2022/11/09 12:23:33;;;;;;;27.00;18.57;;;;;;;13.73;100.00;98757.17;2179620;82;21064;-85
2022/11/09 12:26:34;;;;;;;26.33;17.17;;;;;;;13.72;100.00;98760.30;2180932;81;21050;-85
2022/11/09 12:29:35;;;;;;;26.33;17.55;;;;;;;13.71;100.00;98764.42;2180376;81;20969;-85
2022/11/09 12:32:36;;;;;;;26.12;18.85;;;;;;;13.69;100.00;98765.94;2179131;81;21084;-86
2022/11/09 12:35:37;;;;;;;25.77;18.00;;;;;;;13.66;100.00;98761.09;2178996;82;20930;-85
2022/11/09 12:38:38;;;;;;;26.55;19.35;;;;;;;13.65;100.00;98756.33;2182504;81;20996;-86
2022/11/09 12:41:39;;;;;;;37.60;24.57;;;;;;;13.66;100.00;98757.95;2185080;81;20981;-86
2022/11/09 12:44:40;;;;;;;37.65;25.35;;;;;;;13.70;100.00;98764.13;2185142;81;20996;-86
2022/11/09 12:47:40;;;;;;;31.05;22.32;;;;;;;13.73;100.00;98754.53;2185189;81;21527;-85
2022/11/09 12:50:41;;;;;;;43.35;25.80;;;;;;;13.76;100.00;98752.81;2186170;81;20957;-86
2022/11/09 12:53:42;;;;;;;44.40;26.93;;;;;;;13.80;100.00;98754.83;2186132;81;20957;-85
2022/11/09 12:56:43;;;;;;;44.73;26.12;;;;;;;13.82;100.00;98754.16;2185268;81;21068;-87
2022/11/09 12:59:45;;;;;;;36.50;23.85;;;;;;;13.82;100.00;98757.29;2184914;81;21036;-86
2022/11/09 13:02:46;;;;;;;28.85;19.20;;;;;;;13.80;100.00;98748.77;2185099;81;21543;-86
2022/11/09 13:05:48;;;;;;;29.75;20.82;;;;;;;13.78;100.00;98755.55;2184870;81;21016;-86
2022/11/09 13:08:49;;;;;;;31.87;18.82;;;;;;;13.73;100.00;98746.14;2187136;81;20999;-86
2022/11/09 13:11:50;;;;;;;35.10;21.17;;;;;;;13.71;100.00;98748.13;2188029;81;20968;-85
2022/11/09 13:14:51;;;;;;;35.25;22.95;;;;;;;13.67;100.00;98757.44;2185324;81;21032;-85
2022/11/09 13:17:51;;;;;;;37.93;24.55;;;;;;;13.68;100.00;98754.30;2185252;81;20941;-86
2022/11/09 13:20:52;;;;;;;58.30;32.75;;;;;;;13.67;100.00;98757.44;2185002;81;20961;-86
2022/11/09 13:23:53;;;;;;;42.27;25.72;;;;;;;13.66;100.00;98759.27;2186168;81;21009;-85
2022/11/09 13:26:54;;;;;;;41.00;19.45;;;;;;;13.63;100.00;98762.30;2186368;81;20966;-84
2022/11/09 13:29:55;;;;;;;22.48;15.58;;;;;;;13.59;100.00;98754.48;2185300;81;20984;-85
2022/11/09 13:32:56;;;;;;;24.55;15.90;;;;;;;13.54;100.00;98756.91;2185233;81;21020;-86
2022/11/09 13:35:58;;;;;;;23.42;14.87;;;;;;;13.49;100.00;98755.36;2185285;81;21515;-86
2022/11/09 13:38:58;;;;;;;24.52;16.23;;;;;;;13.45;100.00;98753.34;2180506;81;21024;-85
2022/11/09 13:41:59;;;;;;;26.23;16.52;;;;;;;13.38;100.00;98751.98;2178041;82;21503;-86
2022/11/09 13:45:00;;;;;;;30.52;17.10;;;;;;;13.32;100.00;98749.63;2177857;82;21023;-85
2022/11/09 13:48:01;;;;;;;23.92;17.35;;;;;;;13.27;100.00;98748.61;2178099;82;21056;-86